Disclaimer

Please do not use the information listed here in-flight or in-navigation, as they are not provided to us by the airports but are provided by volunteers, so they might be outdated.

Search


Regions


Airport information page

No radio frequency information is available.

Airport informations:
Latitude: 35° 01' 00.00" N
Longitude: 001° 27' 00.00" W
Elevation: 814 feet - 248 meters
Operating hours: Remarks
Operating agency: Civil government, landing fees and diplomatic clearance may be required
Timezone: UTC+1 - Dates notified by NOTAM
Fuel: Jet A1, without icing nhibitor.

Runway information:
07/25 - 8530 x 148 feet< - >2600 x 45 meters

Recent METARs:
DAON 131900Z 00000KT 8000 FEW010 SCT026 15/14 Q1020
DAON 131930Z 00000KT 8000 FEW010 SCT026 15/14 Q1020
DAON 132000Z 00000KT 8000 SCT010 SCT026 14/13 Q1020

Airport on the map: